Aeroporto :
LOGIN :

Iscrizione | Disclaimer

   EN    FR    IT 

 










Sommario :    VFR   VFR Marginale   IFR   IFR Intensivo   IFR Molto Intensivo
Visibilità : 
Base nubi : 
>= 8 km
>= 3000ft
5 / 8 km
1000 / 3000 ft
1500m / 5 km
500 / 1000 ft
800 / 1500m
200 / 500 ft
< 800m
< 200 ft
Simboli :   Temporali  Nebbia  Neve Forte  Precipitazioni Forti  Vento > 20 kt
SIGMETs :   Varie  Temporali  Ghiacco  Turbolenza  Onda orograficha  Ceneri Vulcaniche






- Altitudine del aeroporto : -15 ft
- Codice IATA : RTM


EHRD - Rotterdam Zestienhoven

ULTIMO METAR :
  • 260555Z AUTO 19012KT 160V220 9999 FEW009 BKN014 OVC016 09/08 Q0998 TEMPO BKN012

METARs OBSOLETI :
  • 260525Z AUTO 19012KT 150V230 9999 BKN009 OVC010 09/08 Q0998 NOSIG
  • 260455Z AUTO 18012KT 150V220 9999 BKN009 OVC010 09/08 Q0998 BECMG BKN012
  • 260425Z AUTO 19011KT 150V220 9999 BKN009 OVC011 09/08 Q0998 BECMG BKN012
  • 260355Z AUTO 19011KT 160V230 9999 FEW009 BKN011 OVC013 09/08 Q0998 NOSIG
  • 260325Z AUTO 18011KT 9999 FEW008 BKN012 BKN014 09/08 Q0998 NOSIG

TAF TAF EHRD
Valido dal 26 a 06 ore il 27 a 12 ore UTC


260518Z 2606/2712 19011KT 9999 BKN009
BECMG 2606/2609 SCT025
BECMG 2608/2611 21015G25KT
PROB40
TEMPO 2615/2705 6000 SHRA SCT020CB BKN040
BECMG 2619/2622 21011KT
PROB30
TEMPO 2705/2710 BKN010



MetMap, La meteo Aeronautica in un colpo d'occhio ! - Copyright ORBIFLY Dicembre 2007 - Disclaimer

ORBIFLY MET'MAP TEAM :

Programmazione e sviluppo : Alexandra Zaïnal
Concezione : Baudouin d'Aumeries
Aiuto per la programmazione : Marc-Olivier Méhu
Supporto tecnico e logistico : Manuel Goepfert
Aiuto per la traduzione : Arnaldo La Scala

Contatto : metmap@orbifly.com




FONTI E CREDITI :

   NOAA